createdAt,value
2019-03-17T00:01:57.015Z,11.30
2019-03-17T00:04:30.918Z,11.30
2019-03-17T00:06:51.193Z,11.30
2019-03-17T00:09:20.007Z,11.40
2019-03-17T00:11:48.917Z,11.40
2019-03-17T00:14:17.891Z,11.40
2019-03-17T00:16:46.802Z,11.40
2019-03-17T00:19:15.697Z,11.50
2019-03-17T00:21:44.548Z,11.50
2019-03-17T00:24:13.553Z,11.40
2019-03-17T00:26:42.433Z,11.50
2019-03-17T00:29:11.366Z,11.50
2019-03-17T00:31:40.269Z,11.40
2019-03-17T00:34:09.118Z,11.50
2019-03-17T00:36:37.961Z,11.50
2019-03-17T00:39:07.186Z,11.50
2019-03-17T00:41:36.101Z,11.40
2019-03-17T00:44:05.081Z,11.40
2019-03-17T00:46:33.964Z,11.40
2019-03-17T00:49:02.777Z,11.30
2019-03-17T00:51:31.561Z,11.30
2019-03-17T00:54:00.397Z,11.30
2019-03-17T00:56:29.190Z,11.20
2019-03-17T00:58:58.342Z,11.20
2019-03-17T01:01:27.145Z,11.20
2019-03-17T01:03:56.013Z,11.10
2019-03-17T01:06:24.806Z,11.10
2019-03-17T01:08:53.973Z,11.10
2019-03-17T01:11:22.780Z,11.10
2019-03-17T01:13:51.653Z,11.00
2019-03-17T01:16:20.663Z,10.90
2019-03-17T01:18:49.504Z,11.00
2019-03-17T01:21:18.325Z,10.90
2019-03-17T01:23:47.117Z,10.80
2019-03-17T01:26:15.950Z,10.90
2019-03-17T01:28:44.780Z,10.80
2019-03-17T01:31:13.603Z,10.80
2019-03-17T01:33:42.509Z,10.80
2019-03-17T01:36:11.397Z,10.80
2019-03-17T01:38:40.181Z,10.80
2019-03-17T01:41:09.094Z,10.80
2019-03-17T01:43:37.968Z,10.80
2019-03-17T01:46:06.801Z,10.80
2019-03-17T01:48:35.585Z,10.80
2019-03-17T01:51:04.772Z,10.80
2019-03-17T01:53:33.572Z,10.80
2019-03-17T01:56:02.372Z,10.80
2019-03-17T01:58:31.192Z,10.70
2019-03-17T02:01:00.022Z,10.70
2019-03-17T02:03:28.924Z,10.70
2019-03-17T02:05:57.824Z,10.60
2019-03-17T02:08:26.916Z,10.60
2019-03-17T02:10:56.076Z,10.50
2019-03-17T02:13:24.918Z,10.40
2019-03-17T02:15:53.859Z,10.30
2019-03-17T02:18:22.709Z,10.20
2019-03-17T02:20:51.525Z,10.10
2019-03-17T02:23:20.332Z,10.00
2019-03-17T02:25:49.296Z,10.00
2019-03-17T02:28:18.122Z,10.00
2019-03-17T02:30:47.086Z,10.00
2019-03-17T02:33:15.921Z,9.90
2019-03-17T02:35:44.736Z,9.80
2019-03-17T02:38:13.622Z,9.80
2019-03-17T02:40:42.555Z,9.70
2019-03-17T02:43:11.471Z,9.70
2019-03-17T02:45:41.317Z,9.60
2019-03-17T02:48:10.269Z,9.60
2019-03-17T02:50:39.398Z,9.60
2019-03-17T02:53:08.300Z,9.50
2019-03-17T02:55:37.202Z,9.50
2019-03-17T02:58:06.001Z,9.50
2019-03-17T03:00:37.595Z,9.50
2019-03-17T03:03:06.540Z,9.60
2019-03-17T03:05:35.385Z,9.50
2019-03-17T03:08:04.310Z,9.50
2019-03-17T03:10:33.266Z,9.50
2019-03-17T03:13:02.465Z,9.50
2019-03-17T03:15:31.317Z,9.50
2019-03-17T03:18:00.165Z,9.50
2019-03-17T03:20:29.074Z,9.50
2019-03-17T03:22:58.034Z,9.50
2019-03-17T03:25:26.804Z,9.50
2019-03-17T03:27:55.806Z,9.50
2019-03-17T03:30:24.685Z,9.50
2019-03-17T03:32:53.502Z,9.40
2019-03-17T03:35:22.296Z,9.40
2019-03-17T03:37:51.118Z,9.40
2019-03-17T03:40:20.069Z,9.50
2019-03-17T03:43:08.171Z,9.50
2019-03-17T03:45:37.286Z,9.40
2019-03-17T03:48:06.222Z,9.50
2019-03-17T03:50:35.021Z,9.40
2019-03-17T03:53:03.914Z,9.40
2019-03-17T03:55:32.710Z,9.40
2019-03-17T03:58:01.721Z,9.40
2019-03-17T04:00:30.734Z,9.40
2019-03-17T04:02:59.577Z,9.40
2019-03-17T04:05:32.392Z,9.30
2019-03-17T04:07:59.001Z,9.30
2019-03-17T04:10:27.968Z,9.20
2019-03-17T04:12:56.792Z,9.20
2019-03-17T04:15:25.886Z,9.20
2019-03-17T04:17:54.709Z,9.20
2019-03-17T04:20:23.557Z,9.20
2019-03-17T04:22:52.442Z,9.20
2019-03-17T04:25:21.248Z,9.10
2019-03-17T04:27:50.214Z,9.10
2019-03-17T04:30:19.129Z,9.00
2019-03-17T04:32:47.949Z,9.00
2019-03-17T04:35:16.745Z,9.00
2019-03-17T04:37:45.632Z,8.60
2019-03-17T04:40:14.434Z,8.40
2019-03-17T04:42:43.337Z,8.30
2019-03-17T04:45:12.204Z,8.00
2019-03-17T04:47:41.041Z,8.00
2019-03-17T04:50:10.005Z,8.00
2019-03-17T04:52:38.809Z,8.00
2019-03-17T04:55:08.277Z,8.00
2019-03-17T04:57:37.197Z,7.90
2019-03-17T05:00:06.588Z,7.90
2019-03-17T05:02:35.677Z,7.90
2019-03-17T05:05:04.785Z,7.80
2019-03-17T05:07:33.696Z,7.70
2019-03-17T05:10:02.527Z,7.60
2019-03-17T05:12:31.347Z,7.50
2019-03-17T05:15:00.446Z,7.50
2019-03-17T05:17:29.447Z,7.50
2019-03-17T05:19:58.268Z,7.50
2019-03-17T05:22:27.065Z,7.50
2019-03-17T05:24:55.846Z,7.50
2019-03-17T05:27:24.745Z,7.30
2019-03-17T05:29:53.540Z,7.30
2019-03-17T05:32:22.353Z,7.20
2019-03-17T05:34:51.135Z,7.20
2019-03-17T05:37:20.068Z,7.30
2019-03-17T05:39:48.862Z,7.20
2019-03-17T05:42:17.637Z,7.20
2019-03-17T05:44:46.483Z,7.20
2019-03-17T05:47:15.364Z,7.20
2019-03-17T05:49:44.167Z,7.20
2019-03-17T05:52:12.982Z,7.20
2019-03-17T05:54:41.792Z,7.20
2019-03-17T05:57:10.659Z,7.10
2019-03-17T05:59:39.460Z,7.00
2019-03-17T06:02:08.380Z,7.00
2019-03-17T06:04:37.509Z,7.00
2019-03-17T06:07:18.099Z,6.90
2019-03-17T06:09:36.949Z,6.90
2019-03-17T06:12:06.978Z,6.90
2019-03-17T06:14:35.817Z,6.90
2019-03-17T06:17:04.837Z,6.90
2019-03-17T06:19:33.875Z,6.90
2019-03-17T06:22:02.720Z,6.90
2019-03-17T06:24:31.976Z,6.90
2019-03-17T06:27:20.120Z,6.80
2019-03-17T06:29:49.012Z,6.80
2019-03-17T06:32:17.875Z,6.70
2019-03-17T06:34:46.938Z,6.70
2019-03-17T06:37:15.722Z,6.60
2019-03-17T06:39:44.521Z,6.60
2019-03-17T06:42:13.357Z,6.60
2019-03-17T06:47:10.541Z,6.60
2019-03-17T06:49:42.120Z,6.60
2019-03-17T06:52:11.533Z,6.60
2019-03-17T06:54:40.415Z,6.70
2019-03-17T06:57:09.220Z,6.80
2019-03-17T06:59:38.093Z,6.90
2019-03-17T07:02:07.274Z,6.90
2019-03-17T07:04:36.111Z,7.00
2019-03-17T07:07:05.284Z,7.00
2019-03-17T07:09:34.073Z,7.20
2019-03-17T07:12:02.866Z,7.20
2019-03-17T07:14:31.753Z,7.30
2019-03-17T07:17:00.605Z,7.30
2019-03-17T07:19:29.452Z,7.30
2019-03-17T07:21:58.412Z,7.30
2019-03-17T07:24:27.174Z,7.50
2019-03-17T07:26:56.001Z,7.70
2019-03-17T07:29:24.888Z,7.80
2019-03-17T07:31:53.777Z,7.70
2019-03-17T07:34:22.553Z,7.90
2019-03-17T07:36:51.445Z,8.30
2019-03-17T07:39:20.233Z,8.30
2019-03-17T07:41:49.037Z,8.20
2019-03-17T07:44:17.843Z,8.10
